aviador You're here:

KTOI Decoded Metar

TROY in AL, USA
Report Time2018-01-19 10:53:00
UTC Time2018-01-19 11:13:55
Flight Rules vfr VFR
WindCalm
Visibility9999 m
Phenomena:N/A
Clouds:N/A
Expected CloudBase > 800 ft AGL from Temp-Dew spread
CeilingNone
Temp-7°C (ISA -21)
Dew Point-9°C (86% RH)
AAT-10.0°C
QNH1028 hPa
Density Alt-2,717 ft
Elevation387 ft
Report Wrong Elevation
Raw Report
KTOI 191053Z AUTO 00000KT 10SM CLR M07/M09 A3036 RMK AO2 SLP284
T10721089=

Extra information for KTOI:More info

Metar Taf Metar & Taf Last 4 Metars F.Rules Stats Wind Profile Meteogram Temp Stats Airport Information Weather charts Add Link Nearby VenuesMetar ALERT Operation Metar Decoded Social comments

AIRNAV info for KTOI